SKW3088 KSAN-KEUG
Flight info
| Callsign | SKW3088 |
|---|---|
| Flight time | 1h 58m |
| Altitude | 32000 |
| Route | PADRZ2 IKAYE TESEA SCTRR SNS SPNSR EUG |
| Aircraft | E175/M-SDE3GILORVW/S |
Departure
| Time | 2026-04-15 04:21 |
|---|---|
| Airport | San Diego International Airport (KSAN) |
Arrival
| Time | 2026-04-15 06:20 |
|---|---|
| Airport | Eugene Airport (KEUG) |
| Time | Latitude | Longitude | Altitude | Speed | Heading |
|---|---|---|---|---|---|
| 2026-04-15 04:07 | 32.73433 | -117.20254 | 22 ft | 4 kts | 244° |
| 2026-04-15 04:07 | 32.73444 | -117.20236 | 22 ft | 1 kts | 196° |
| 2026-04-15 04:07 | 32.73465 | -117.20233 | 20 ft | 4 kts | 145° |
| 2026-04-15 04:08 | 32.73472 | -117.20247 | 20 ft | 4 kts | 50° |
| 2026-04-15 04:08 | 32.73458 | -117.20257 | 23 ft | 4 kts | 16° |
| 2026-04-15 04:08 | 32.73431 | -117.20266 | 20 ft | 4 kts | 16° |
| 2026-04-15 04:08 | 32.73421 | -117.20269 | 22 ft | 0 kts | 16° |
| 2026-04-15 04:10 | 32.73423 | -117.20269 | 22 ft | 1 kts | 16° |
| 2026-04-15 04:10 | 32.73438 | -117.20264 | 21 ft | 2 kts | 16° |
| 2026-04-15 04:11 | 32.73444 | -117.20262 | 20 ft | 2 kts | 15° |
| 2026-04-15 04:12 | 32.73463 | -117.20255 | 20 ft | 4 kts | 15° |
| 2026-04-15 04:12 | 32.73498 | -117.20243 | 20 ft | 6 kts | 25° |
| 2026-04-15 04:12 | 32.73531 | -117.20205 | 20 ft | 8 kts | 68° |
| 2026-04-15 04:12 | 32.73524 | -117.20140 | 20 ft | 9 kts | 98° |
| 2026-04-15 04:13 | 32.73517 | -117.20059 | 23 ft | 11 kts | 103° |
| 2026-04-15 04:13 | 32.73495 | -117.19966 | 21 ft | 13 kts | 105° |
| 2026-04-15 04:13 | 32.73471 | -117.19868 | 22 ft | 14 kts | 107° |
| 2026-04-15 04:13 | 32.73444 | -117.19755 | 23 ft | 16 kts | 105° |
| 2026-04-15 04:14 | 32.73417 | -117.19642 | 20 ft | 17 kts | 107° |
| 2026-04-15 04:14 | 32.73391 | -117.19539 | 21 ft | 18 kts | 105° |
| 2026-04-15 04:14 | 32.73359 | -117.19399 | 20 ft | 20 kts | 109° |
| 2026-04-15 04:14 | 32.73320 | -117.19241 | 20 ft | 21 kts | 105° |
| 2026-04-15 04:15 | 32.73280 | -117.19066 | 21 ft | 22 kts | 106° |
| 2026-04-15 04:15 | 32.73233 | -117.18883 | 20 ft | 24 kts | 107° |
| 2026-04-15 04:15 | 32.73186 | -117.18691 | 22 ft | 25 kts | 105° |
| 2026-04-15 04:15 | 32.73138 | -117.18489 | 21 ft | 26 kts | 107° |
| 2026-04-15 04:16 | 32.73086 | -117.18277 | 23 ft | 27 kts | 106° |
| 2026-04-15 04:16 | 32.73054 | -117.18140 | 21 ft | 28 kts | 106° |
| 2026-04-15 04:16 | 32.73028 | -117.18033 | 23 ft | 28 kts | 106° |
| 2026-04-15 04:16 | 32.72990 | -117.17876 | 20 ft | 24 kts | 105° |
| 2026-04-15 04:17 | 32.72954 | -117.17745 | 22 ft | 13 kts | 108° |
| 2026-04-15 04:17 | 32.72957 | -117.17673 | 20 ft | 0 kts | 73° |
| 2026-04-15 04:18 | 32.72957 | -117.17670 | 20 ft | 1 kts | 73° |
| 2026-04-15 04:18 | 32.72962 | -117.17651 | 20 ft | 4 kts | 73° |
| 2026-04-15 04:19 | 32.72973 | -117.17615 | 23 ft | 6 kts | 61° |
| 2026-04-15 04:19 | 32.73011 | -117.17594 | 20 ft | 8 kts | 347° |
| 2026-04-15 04:19 | 32.73041 | -117.17668 | 20 ft | 13 kts | 286° |
| 2026-04-15 04:19 | 32.73050 | -117.17702 | 21 ft | 0 kts | 285° |
| 2026-04-15 04:20 | 32.73052 | -117.17708 | 20 ft | 10 kts | 285° |
| 2026-04-15 04:21 | 32.73139 | -117.18069 | 20 ft | 80 kts | 286° |
| 2026-04-15 04:21 | 32.73353 | -117.18947 | 22 ft | 140 kts | 285° |
| 2026-04-15 04:21 | 32.73669 | -117.20212 | 286 ft | 171 kts | 288° |
| 2026-04-15 04:21 | 32.74096 | -117.21629 | 829 ft | 194 kts | 294° |
| 2026-04-15 04:22 | 32.74757 | -117.23115 | 1471 ft | 211 kts | 304° |
| 2026-04-15 04:22 | 32.75574 | -117.24558 | 2387 ft | 211 kts | 304° |
| 2026-04-15 04:22 | 32.76403 | -117.25997 | 3294 ft | 213 kts | 306° |
| 2026-04-15 04:22 | 32.77315 | -117.27474 | 3890 ft | 228 kts | 307° |
| 2026-04-15 04:23 | 32.78271 | -117.29034 | 4615 ft | 238 kts | 306° |
| 2026-04-15 04:23 | 32.79253 | -117.30676 | 5270 ft | 250 kts | 306° |
| 2026-04-15 04:23 | 32.80256 | -117.32372 | 5909 ft | 260 kts | 307° |
| 2026-04-15 04:23 | 32.81359 | -117.34091 | 6613 ft | 266 kts | 309° |
| 2026-04-15 04:24 | 32.82516 | -117.35829 | 7310 ft | 271 kts | 309° |
| 2026-04-15 04:24 | 32.83679 | -117.37601 | 8081 ft | 272 kts | 308° |
| 2026-04-15 04:24 | 32.84838 | -117.39396 | 8802 ft | 274 kts | 308° |
| 2026-04-15 04:24 | 32.86003 | -117.41205 | 9471 ft | 279 kts | 308° |
| 2026-04-15 04:25 | 32.87196 | -117.43056 | 10027 ft | 285 kts | 308° |
| 2026-04-15 04:25 | 32.88438 | -117.44985 | 10190 ft | 305 kts | 308° |
| 2026-04-15 04:25 | 32.89772 | -117.47058 | 10299 ft | 324 kts | 308° |
| 2026-04-15 04:25 | 32.91165 | -117.49226 | 10639 ft | 332 kts | 308° |
| 2026-04-15 04:26 | 32.92573 | -117.51418 | 11254 ft | 333 kts | 309° |
| 2026-04-15 04:26 | 32.93990 | -117.53622 | 11790 ft | 337 kts | 309° |
| 2026-04-15 04:26 | 32.95417 | -117.55844 | 12418 ft | 339 kts | 308° |
| 2026-04-15 04:26 | 32.96849 | -117.58076 | 13113 ft | 339 kts | 309° |
| 2026-04-15 04:27 | 32.98289 | -117.60323 | 13725 ft | 343 kts | 309° |
| 2026-04-15 04:27 | 32.99741 | -117.62593 | 14335 ft | 347 kts | 309° |
| 2026-04-15 04:27 | 33.01205 | -117.64885 | 14943 ft | 349 kts | 308° |
| 2026-04-15 04:27 | 33.02680 | -117.67192 | 15574 ft | 351 kts | 308° |
| 2026-04-15 04:28 | 33.04167 | -117.69516 | 16151 ft | 354 kts | 308° |
| 2026-04-15 04:28 | 33.05666 | -117.71862 | 16730 ft | 357 kts | 308° |
| 2026-04-15 04:28 | 33.07366 | -117.74022 | 17261 ft | 359 kts | 318° |
| 2026-04-15 04:28 | 33.09244 | -117.75994 | 17833 ft | 362 kts | 320° |
| 2026-04-15 04:29 | 33.11185 | -117.77923 | 18431 ft | 364 kts | 321° |
| 2026-04-15 04:29 | 33.13143 | -117.79852 | 18977 ft | 366 kts | 321° |
| 2026-04-15 04:29 | 33.15102 | -117.81814 | 19559 ft | 369 kts | 320° |
| 2026-04-15 04:29 | 33.17059 | -117.83805 | 20166 ft | 371 kts | 320° |
| 2026-04-15 04:30 | 33.19027 | -117.85818 | 20736 ft | 374 kts | 320° |
| 2026-04-15 04:30 | 33.20982 | -117.87874 | 21317 ft | 376 kts | 317° |
| 2026-04-15 04:30 | 33.22839 | -117.90082 | 21848 ft | 378 kts | 314° |
| 2026-04-15 04:30 | 33.24652 | -117.92375 | 22351 ft | 381 kts | 314° |
| 2026-04-15 04:31 | 33.26491 | -117.94678 | 22852 ft | 384 kts | 314° |
| 2026-04-15 04:31 | 33.28370 | -117.96953 | 23356 ft | 386 kts | 315° |
| 2026-04-15 04:31 | 33.30285 | -117.99217 | 23826 ft | 388 kts | 315° |
| 2026-04-15 04:31 | 33.32215 | -118.01494 | 24247 ft | 391 kts | 315° |
| 2026-04-15 04:32 | 33.34148 | -118.03792 | 24683 ft | 393 kts | 315° |
| 2026-04-15 04:32 | 33.36088 | -118.06109 | 25134 ft | 396 kts | 315° |
| 2026-04-15 04:32 | 33.38040 | -118.08450 | 25624 ft | 397 kts | 315° |
| 2026-04-15 04:32 | 33.39981 | -118.10779 | 26252 ft | 394 kts | 315° |
| 2026-04-15 04:33 | 33.41893 | -118.13073 | 26810 ft | 393 kts | 315° |
| 2026-04-15 04:33 | 33.43849 | -118.15418 | 27310 ft | 393 kts | 315° |
| 2026-04-15 04:33 | 33.45777 | -118.17732 | 27818 ft | 392 kts | 315° |
| 2026-04-15 04:33 | 33.47696 | -118.20036 | 28332 ft | 390 kts | 315° |
| 2026-04-15 04:34 | 33.49612 | -118.22339 | 28831 ft | 390 kts | 315° |
| 2026-04-15 04:34 | 33.51499 | -118.24609 | 29336 ft | 389 kts | 315° |
| 2026-04-15 04:34 | 33.53427 | -118.26930 | 29870 ft | 388 kts | 315° |
| 2026-04-15 04:34 | 33.55328 | -118.29219 | 30374 ft | 386 kts | 315° |
| 2026-04-15 04:35 | 33.57194 | -118.31468 | 30816 ft | 385 kts | 315° |
| 2026-04-15 04:35 | 33.59078 | -118.33740 | 31269 ft | 384 kts | 315° |
| 2026-04-15 04:35 | 33.60953 | -118.36003 | 31727 ft | 381 kts | 315° |
| 2026-04-15 04:35 | 33.62811 | -118.38249 | 32187 ft | 378 kts | 315° |
| 2026-04-15 04:36 | 33.64694 | -118.40525 | 32061 ft | 390 kts | 315° |
| 2026-04-15 04:36 | 33.68611 | -118.45258 | 32020 ft | 405 kts | 315° |
| 2026-04-15 04:37 | 33.72565 | -118.50050 | 31996 ft | 403 kts | 315° |
| 2026-04-15 04:37 | 33.76518 | -118.54846 | 31976 ft | 405 kts | 315° |
| 2026-04-15 04:38 | 33.80550 | -118.59741 | 32011 ft | 419 kts | 315° |
| 2026-04-15 04:38 | 33.84709 | -118.64799 | 31980 ft | 431 kts | 315° |
| 2026-04-15 04:39 | 33.88975 | -118.69997 | 31994 ft | 441 kts | 316° |
| 2026-04-15 04:39 | 33.93304 | -118.75282 | 31974 ft | 445 kts | 316° |
| 2026-04-15 04:40 | 33.97677 | -118.80626 | 31977 ft | 445 kts | 316° |
| 2026-04-15 04:40 | 34.01975 | -118.85889 | 31988 ft | 437 kts | 316° |
| 2026-04-15 04:41 | 34.06219 | -118.91089 | 32167 ft | 436 kts | 316° |
| 2026-04-15 04:41 | 34.08353 | -118.93709 | 32057 ft | 438 kts | 316° |
| 2026-04-15 04:41 | 34.10489 | -118.96333 | 32098 ft | 437 kts | 316° |
| 2026-04-15 04:42 | 34.14742 | -119.01562 | 32103 ft | 436 kts | 316° |
| 2026-04-15 04:42 | 34.18972 | -119.06613 | 32025 ft | 411 kts | 317° |
| 2026-04-15 04:42 | 34.20975 | -119.08983 | 32057 ft | 395 kts | 317° |
| 2026-04-15 04:43 | 34.22936 | -119.11310 | 32157 ft | 398 kts | 317° |
| 2026-04-15 04:43 | 34.26910 | -119.16043 | 32110 ft | 402 kts | 317° |
| 2026-04-15 04:44 | 34.30872 | -119.20784 | 32108 ft | 401 kts | 317° |
| 2026-04-15 04:44 | 34.34836 | -119.25527 | 32080 ft | 400 kts | 317° |
| 2026-04-15 04:45 | 34.38791 | -119.30268 | 32095 ft | 400 kts | 317° |
| 2026-04-15 04:45 | 34.42103 | -119.34246 | 32093 ft | 400 kts | 317° |
| 2026-04-15 04:46 | 34.46032 | -119.38965 | 32084 ft | 401 kts | 317° |
| 2026-04-15 04:46 | 34.51980 | -119.46125 | 32093 ft | 400 kts | 317° |
| 2026-04-15 04:47 | 34.55903 | -119.50859 | 32086 ft | 401 kts | 317° |
| 2026-04-15 04:47 | 34.59855 | -119.55624 | 32087 ft | 400 kts | 317° |
| 2026-04-15 04:48 | 34.63806 | -119.60407 | 32065 ft | 400 kts | 317° |
| 2026-04-15 04:48 | 34.67748 | -119.65181 | 32096 ft | 401 kts | 317° |
| 2026-04-15 04:49 | 34.69708 | -119.67559 | 32441 ft | 391 kts | 317° |
| 2026-04-15 04:49 | 34.71604 | -119.69862 | 33102 ft | 382 kts | 317° |
| 2026-04-15 04:49 | 34.73472 | -119.72135 | 33455 ft | 380 kts | 317° |
| 2026-04-15 04:49 | 34.75345 | -119.74410 | 33614 ft | 383 kts | 317° |
| 2026-04-15 04:50 | 34.79173 | -119.79052 | 33727 ft | 396 kts | 317° |
| 2026-04-15 04:50 | 34.81134 | -119.81439 | 33862 ft | 400 kts | 317° |
| 2026-04-15 04:50 | 34.83072 | -119.83807 | 34305 ft | 389 kts | 316° |
| 2026-04-15 04:51 | 34.85005 | -119.86163 | 34157 ft | 396 kts | 317° |
| 2026-04-15 04:51 | 34.86957 | -119.88536 | 34091 ft | 393 kts | 316° |
| 2026-04-15 04:51 | 34.90848 | -119.93243 | 34124 ft | 396 kts | 317° |
| 2026-04-15 04:52 | 34.94723 | -119.97999 | 34143 ft | 396 kts | 316° |
| 2026-04-15 04:52 | 34.98584 | -120.02778 | 34148 ft | 395 kts | 316° |
| 2026-04-15 04:53 | 35.02464 | -120.07537 | 34149 ft | 396 kts | 316° |
| 2026-04-15 04:53 | 35.06354 | -120.12288 | 34134 ft | 394 kts | 316° |
| 2026-04-15 04:54 | 35.10229 | -120.17057 | 34112 ft | 396 kts | 316° |
| 2026-04-15 04:54 | 35.14090 | -120.21830 | 34151 ft | 396 kts | 316° |
| 2026-04-15 04:55 | 35.18107 | -120.26414 | 34145 ft | 394 kts | 324° |
| 2026-04-15 04:55 | 35.22486 | -120.30467 | 34142 ft | 394 kts | 324° |
| 2026-04-15 04:56 | 35.26915 | -120.34522 | 34170 ft | 404 kts | 324° |
| 2026-04-15 04:56 | 35.31500 | -120.38709 | 34152 ft | 418 kts | 324° |
| 2026-04-15 04:57 | 35.36235 | -120.43039 | 34142 ft | 429 kts | 324° |
| 2026-04-15 04:57 | 35.41024 | -120.47429 | 34131 ft | 430 kts | 324° |
| 2026-04-15 04:58 | 35.45807 | -120.51816 | 34140 ft | 430 kts | 324° |
| 2026-04-15 04:58 | 35.50604 | -120.56223 | 34122 ft | 430 kts | 324° |
| 2026-04-15 04:59 | 35.55411 | -120.60600 | 34134 ft | 430 kts | 325° |
| 2026-04-15 04:59 | 35.60290 | -120.64858 | 34136 ft | 430 kts | 326° |
| 2026-04-15 05:00 | 35.65164 | -120.69141 | 34141 ft | 432 kts | 325° |
| 2026-04-15 05:00 | 35.70036 | -120.73455 | 34144 ft | 432 kts | 325° |
| 2026-04-15 05:01 | 35.74914 | -120.77780 | 34140 ft | 432 kts | 325° |
| 2026-04-15 05:01 | 35.79789 | -120.82104 | 34131 ft | 432 kts | 325° |
| 2026-04-15 05:02 | 35.84647 | -120.86420 | 34138 ft | 433 kts | 325° |
| 2026-04-15 05:02 | 35.89535 | -120.90771 | 34146 ft | 433 kts | 325° |
| 2026-04-15 05:03 | 35.94421 | -120.95128 | 34155 ft | 433 kts | 325° |
| 2026-04-15 05:03 | 35.99311 | -120.99494 | 34167 ft | 437 kts | 325° |
| 2026-04-15 05:04 | 36.04263 | -121.03921 | 34167 ft | 441 kts | 325° |
| 2026-04-15 05:04 | 36.09228 | -121.08368 | 34169 ft | 440 kts | 325° |
| 2026-04-15 05:05 | 36.14181 | -121.12812 | 34165 ft | 440 kts | 325° |
| 2026-04-15 05:05 | 36.19142 | -121.17270 | 34181 ft | 441 kts | 325° |
| 2026-04-15 05:06 | 36.24101 | -121.21732 | 34184 ft | 441 kts | 325° |
| 2026-04-15 05:06 | 36.29061 | -121.26203 | 34199 ft | 440 kts | 325° |
| 2026-04-15 05:07 | 36.34005 | -121.30667 | 34192 ft | 440 kts | 325° |
| 2026-04-15 05:07 | 36.38959 | -121.35146 | 34200 ft | 440 kts | 325° |
| 2026-04-15 05:08 | 36.43908 | -121.39630 | 34200 ft | 440 kts | 325° |
| 2026-04-15 05:08 | 36.48854 | -121.44118 | 34212 ft | 441 kts | 325° |
| 2026-04-15 05:09 | 36.53814 | -121.48626 | 34207 ft | 441 kts | 325° |
| 2026-04-15 05:09 | 36.58767 | -121.53131 | 34196 ft | 441 kts | 324° |
| 2026-04-15 05:10 | 36.63718 | -121.57645 | 34198 ft | 441 kts | 324° |
| 2026-04-15 05:10 | 36.66341 | -121.59603 | 34210 ft | 441 kts | 337° |
| 2026-04-15 05:10 | 36.69288 | -121.60636 | 34214 ft | 441 kts | 349° |
| 2026-04-15 05:11 | 36.75348 | -121.61895 | 34181 ft | 441 kts | 351° |
| 2026-04-15 05:11 | 36.81418 | -121.63002 | 34206 ft | 441 kts | 351° |
| 2026-04-15 05:12 | 36.87498 | -121.64119 | 34207 ft | 442 kts | 351° |
| 2026-04-15 05:12 | 36.93581 | -121.65267 | 34203 ft | 442 kts | 351° |
| 2026-04-15 05:13 | 36.99664 | -121.66412 | 34206 ft | 442 kts | 351° |
| 2026-04-15 05:13 | 37.05747 | -121.67554 | 34202 ft | 442 kts | 351° |
| 2026-04-15 05:14 | 37.11833 | -121.68700 | 34197 ft | 442 kts | 351° |
| 2026-04-15 05:14 | 37.17920 | -121.69848 | 34193 ft | 442 kts | 351° |
| 2026-04-15 05:15 | 37.23998 | -121.70995 | 34205 ft | 442 kts | 351° |
| 2026-04-15 05:15 | 37.30044 | -121.72137 | 34226 ft | 442 kts | 351° |
| 2026-04-15 05:16 | 37.36166 | -121.73301 | 34224 ft | 442 kts | 351° |
| 2026-04-15 05:16 | 37.42248 | -121.74455 | 34226 ft | 442 kts | 351° |
| 2026-04-15 05:17 | 37.48295 | -121.75604 | 34214 ft | 442 kts | 351° |
| 2026-04-15 05:17 | 37.54382 | -121.76764 | 34202 ft | 442 kts | 351° |
| 2026-04-15 05:18 | 37.60507 | -121.77933 | 34198 ft | 442 kts | 351° |
| 2026-04-15 05:18 | 37.66547 | -121.79087 | 34195 ft | 442 kts | 350° |
| 2026-04-15 05:19 | 37.72668 | -121.80258 | 34195 ft | 443 kts | 350° |
| 2026-04-15 05:19 | 37.78772 | -121.81430 | 34195 ft | 443 kts | 350° |
| 2026-04-15 05:20 | 37.84866 | -121.82599 | 34187 ft | 443 kts | 350° |
| 2026-04-15 05:20 | 37.90918 | -121.83764 | 34180 ft | 443 kts | 350° |
| 2026-04-15 05:21 | 37.97051 | -121.84946 | 34158 ft | 443 kts | 350° |
| 2026-04-15 05:21 | 38.03102 | -121.86113 | 34141 ft | 442 kts | 350° |
| 2026-04-15 05:22 | 38.09181 | -121.87289 | 34143 ft | 443 kts | 350° |
| 2026-04-15 05:22 | 38.15266 | -121.88467 | 34138 ft | 442 kts | 350° |
| 2026-04-15 05:23 | 38.21354 | -121.89648 | 34138 ft | 442 kts | 350° |
| 2026-04-15 05:23 | 38.27443 | -121.90832 | 34137 ft | 442 kts | 350° |
| 2026-04-15 05:24 | 38.33528 | -121.92016 | 34157 ft | 442 kts | 350° |
| 2026-04-15 05:24 | 38.39617 | -121.93203 | 34154 ft | 442 kts | 350° |
| 2026-04-15 05:25 | 38.45696 | -121.94391 | 34159 ft | 442 kts | 350° |
| 2026-04-15 05:25 | 38.51779 | -121.95581 | 34154 ft | 442 kts | 350° |
| 2026-04-15 05:26 | 38.57857 | -121.96772 | 34160 ft | 442 kts | 349° |
| 2026-04-15 05:26 | 38.63925 | -121.97963 | 34151 ft | 441 kts | 349° |
| 2026-04-15 05:27 | 38.69995 | -121.99157 | 34131 ft | 441 kts | 349° |
| 2026-04-15 05:27 | 38.76057 | -122.00351 | 34134 ft | 441 kts | 349° |
| 2026-04-15 05:28 | 38.81088 | -122.01343 | 34136 ft | 440 kts | 349° |
| 2026-04-15 05:28 | 38.87144 | -122.02541 | 34128 ft | 440 kts | 349° |
| 2026-04-15 05:29 | 38.93199 | -122.03740 | 34127 ft | 440 kts | 349° |
| 2026-04-15 05:29 | 38.99247 | -122.04938 | 34125 ft | 440 kts | 349° |
| 2026-04-15 05:30 | 39.05300 | -122.06142 | 34129 ft | 440 kts | 349° |
| 2026-04-15 05:30 | 39.11348 | -122.07345 | 34123 ft | 440 kts | 349° |
| 2026-04-15 05:31 | 39.17415 | -122.08557 | 34125 ft | 443 kts | 349° |
| 2026-04-15 05:31 | 39.24239 | -122.09917 | 34120 ft | 442 kts | 349° |
| 2026-04-15 05:32 | 39.30326 | -122.11135 | 34110 ft | 442 kts | 349° |
| 2026-04-15 05:32 | 39.36391 | -122.12351 | 34111 ft | 441 kts | 349° |
| 2026-04-15 05:33 | 39.42468 | -122.13571 | 34111 ft | 441 kts | 349° |
| 2026-04-15 05:33 | 39.48537 | -122.14792 | 34112 ft | 442 kts | 349° |
| 2026-04-15 05:34 | 39.54595 | -122.16012 | 34113 ft | 440 kts | 348° |
| 2026-04-15 05:34 | 39.60659 | -122.17237 | 34106 ft | 440 kts | 348° |
| 2026-04-15 05:35 | 39.66708 | -122.18460 | 34110 ft | 441 kts | 348° |
| 2026-04-15 05:35 | 39.72718 | -122.19676 | 34121 ft | 439 kts | 348° |
| 2026-04-15 05:36 | 39.78796 | -122.20911 | 34111 ft | 439 kts | 348° |
| 2026-04-15 05:36 | 39.84840 | -122.22140 | 34113 ft | 440 kts | 348° |
| 2026-04-15 05:37 | 39.90866 | -122.23366 | 34123 ft | 438 kts | 348° |
| 2026-04-15 05:37 | 39.96894 | -122.24597 | 34114 ft | 438 kts | 348° |
| 2026-04-15 05:38 | 40.02875 | -122.25820 | 34114 ft | 438 kts | 348° |
| 2026-04-15 05:38 | 40.07923 | -122.26853 | 34139 ft | 438 kts | 348° |
| 2026-04-15 05:39 | 40.14921 | -122.28288 | 34139 ft | 438 kts | 348° |
| 2026-04-15 05:39 | 40.20948 | -122.29526 | 34144 ft | 438 kts | 348° |
| 2026-04-15 05:40 | 40.26955 | -122.30763 | 34136 ft | 437 kts | 348° |
| 2026-04-15 05:40 | 40.32972 | -122.32004 | 34114 ft | 437 kts | 347° |
| 2026-04-15 05:41 | 40.38005 | -122.33044 | 34119 ft | 437 kts | 348° |
| 2026-04-15 05:41 | 40.44023 | -122.34288 | 34124 ft | 438 kts | 347° |
| 2026-04-15 05:42 | 40.50039 | -122.35537 | 34127 ft | 438 kts | 347° |
| 2026-04-15 05:42 | 40.56022 | -122.36779 | 34134 ft | 435 kts | 347° |
| 2026-04-15 05:43 | 40.62024 | -122.38027 | 34111 ft | 436 kts | 347° |
| 2026-04-15 05:43 | 40.68014 | -122.39276 | 34118 ft | 436 kts | 347° |
| 2026-04-15 05:44 | 40.74021 | -122.40530 | 34122 ft | 437 kts | 347° |
| 2026-04-15 05:44 | 40.80033 | -122.41785 | 34136 ft | 438 kts | 347° |
| 2026-04-15 05:45 | 40.86051 | -122.43053 | 34150 ft | 438 kts | 347° |
| 2026-04-15 05:45 | 40.92050 | -122.44317 | 34137 ft | 435 kts | 347° |
| 2026-04-15 05:46 | 40.98041 | -122.45571 | 34136 ft | 435 kts | 347° |
| 2026-04-15 05:46 | 41.04033 | -122.46840 | 34179 ft | 437 kts | 347° |
| 2026-04-15 05:47 | 41.10041 | -122.48104 | 34171 ft | 437 kts | 347° |
| 2026-04-15 05:47 | 41.16050 | -122.49364 | 34155 ft | 437 kts | 346° |
| 2026-04-15 05:48 | 41.22059 | -122.50644 | 34171 ft | 437 kts | 346° |
| 2026-04-15 05:48 | 41.28056 | -122.51917 | 34179 ft | 436 kts | 346° |
| 2026-04-15 05:49 | 41.34066 | -122.53192 | 34161 ft | 437 kts | 346° |
| 2026-04-15 05:49 | 41.40080 | -122.54485 | 34146 ft | 438 kts | 346° |
| 2026-04-15 05:50 | 41.46088 | -122.55778 | 34169 ft | 438 kts | 346° |
| 2026-04-15 05:51 | 41.55067 | -122.57674 | 34147 ft | 438 kts | 346° |
| 2026-04-15 05:51 | 41.61080 | -122.58969 | 34143 ft | 437 kts | 345° |
| 2026-04-15 05:52 | 41.67084 | -122.60264 | 34149 ft | 437 kts | 345° |
| 2026-04-15 05:52 | 41.73091 | -122.61556 | 34120 ft | 436 kts | 345° |
| 2026-04-15 05:53 | 41.79095 | -122.62851 | 34114 ft | 437 kts | 345° |
| 2026-04-15 05:53 | 41.85095 | -122.64156 | 34117 ft | 437 kts | 345° |
| 2026-04-15 05:54 | 41.91102 | -122.65450 | 34142 ft | 438 kts | 345° |
| 2026-04-15 05:54 | 41.97111 | -122.66748 | 34143 ft | 437 kts | 345° |
| 2026-04-15 05:55 | 42.03096 | -122.68056 | 34149 ft | 435 kts | 345° |
| 2026-04-15 05:55 | 42.09088 | -122.69362 | 34142 ft | 436 kts | 345° |
| 2026-04-15 05:56 | 42.15092 | -122.70673 | 34139 ft | 437 kts | 345° |
| 2026-04-15 05:56 | 42.21084 | -122.71983 | 34141 ft | 437 kts | 345° |
| 2026-04-15 05:57 | 42.27077 | -122.73290 | 34152 ft | 437 kts | 344° |
| 2026-04-15 05:57 | 42.33080 | -122.74606 | 34157 ft | 436 kts | 344° |
| 2026-04-15 05:58 | 42.39073 | -122.75922 | 34157 ft | 436 kts | 344° |
| 2026-04-15 05:58 | 42.42074 | -122.76583 | 33964 ft | 434 kts | 344° |
| 2026-04-15 05:58 | 42.44995 | -122.77212 | 33705 ft | 418 kts | 344° |
| 2026-04-15 05:58 | 42.47814 | -122.77820 | 33437 ft | 402 kts | 343° |
| 2026-04-15 05:59 | 42.50530 | -122.78419 | 33166 ft | 389 kts | 343° |
| 2026-04-15 05:59 | 42.53153 | -122.79006 | 32914 ft | 376 kts | 343° |
| 2026-04-15 05:59 | 42.55698 | -122.79580 | 32651 ft | 368 kts | 343° |
| 2026-04-15 05:59 | 42.58225 | -122.80156 | 32414 ft | 372 kts | 343° |
| 2026-04-15 06:00 | 42.60813 | -122.80748 | 32149 ft | 380 kts | 343° |
| 2026-04-15 06:00 | 42.63431 | -122.81336 | 31914 ft | 383 kts | 343° |
| 2026-04-15 06:00 | 42.66066 | -122.81928 | 31668 ft | 385 kts | 343° |
| 2026-04-15 06:00 | 42.68679 | -122.82514 | 31415 ft | 386 kts | 343° |
| 2026-04-15 06:01 | 42.71330 | -122.83108 | 31168 ft | 387 kts | 343° |
| 2026-04-15 06:01 | 42.73985 | -122.83709 | 30906 ft | 387 kts | 343° |
| 2026-04-15 06:01 | 42.76646 | -122.84314 | 30680 ft | 388 kts | 343° |
| 2026-04-15 06:01 | 42.79319 | -122.84921 | 30453 ft | 390 kts | 343° |
| 2026-04-15 06:02 | 42.82006 | -122.85523 | 30247 ft | 391 kts | 343° |
| 2026-04-15 06:02 | 42.87334 | -122.86804 | 29601 ft | 391 kts | 339° |
| 2026-04-15 06:02 | 42.89985 | -122.87649 | 29056 ft | 392 kts | 339° |
| 2026-04-15 06:03 | 42.92640 | -122.88496 | 28544 ft | 393 kts | 339° |
| 2026-04-15 06:03 | 42.95314 | -122.89326 | 28019 ft | 395 kts | 340° |
| 2026-04-15 06:03 | 42.97998 | -122.90149 | 27453 ft | 397 kts | 339° |
| 2026-04-15 06:03 | 43.00698 | -122.90995 | 26952 ft | 398 kts | 339° |
| 2026-04-15 06:04 | 43.03409 | -122.91839 | 26402 ft | 400 kts | 339° |
| 2026-04-15 06:04 | 43.06127 | -122.92685 | 25854 ft | 402 kts | 339° |
| 2026-04-15 06:04 | 43.08858 | -122.93556 | 25389 ft | 405 kts | 340° |
| 2026-04-15 06:04 | 43.11610 | -122.94384 | 24799 ft | 405 kts | 340° |
| 2026-04-15 06:05 | 43.14353 | -122.95191 | 24270 ft | 401 kts | 340° |
| 2026-04-15 06:05 | 43.17062 | -122.96001 | 23734 ft | 397 kts | 340° |
| 2026-04-15 06:05 | 43.19743 | -122.96818 | 23187 ft | 391 kts | 340° |
| 2026-04-15 06:05 | 43.22383 | -122.97634 | 22662 ft | 388 kts | 339° |
| 2026-04-15 06:06 | 43.25011 | -122.98468 | 22193 ft | 388 kts | 339° |
| 2026-04-15 06:06 | 43.27647 | -122.99282 | 21640 ft | 387 kts | 340° |
| 2026-04-15 06:06 | 43.30262 | -123.00079 | 21149 ft | 384 kts | 340° |
| 2026-04-15 06:06 | 43.32855 | -123.00882 | 20623 ft | 381 kts | 340° |
| 2026-04-15 06:07 | 43.35431 | -123.01672 | 20127 ft | 379 kts | 340° |
| 2026-04-15 06:07 | 43.37992 | -123.02466 | 19625 ft | 376 kts | 340° |
| 2026-04-15 06:07 | 43.40542 | -123.03251 | 19134 ft | 374 kts | 340° |
| 2026-04-15 06:07 | 43.43077 | -123.04035 | 18631 ft | 373 kts | 340° |
| 2026-04-15 06:08 | 43.45596 | -123.04823 | 18082 ft | 370 kts | 340° |
| 2026-04-15 06:08 | 43.48094 | -123.05591 | 17649 ft | 365 kts | 340° |
| 2026-04-15 06:08 | 43.50571 | -123.06362 | 17134 ft | 365 kts | 340° |
| 2026-04-15 06:08 | 43.53035 | -123.07141 | 16648 ft | 361 kts | 340° |
| 2026-04-15 06:09 | 43.55483 | -123.07881 | 16178 ft | 360 kts | 340° |
| 2026-04-15 06:09 | 43.57921 | -123.08637 | 15690 ft | 360 kts | 340° |
| 2026-04-15 06:09 | 43.60346 | -123.09395 | 15258 ft | 356 kts | 341° |
| 2026-04-15 06:09 | 43.62754 | -123.10152 | 14726 ft | 351 kts | 341° |
| 2026-04-15 06:10 | 43.65079 | -123.10882 | 14417 ft | 336 kts | 340° |
| 2026-04-15 06:10 | 43.67320 | -123.11550 | 14203 ft | 322 kts | 341° |
| 2026-04-15 06:10 | 43.69462 | -123.12199 | 13983 ft | 309 kts | 340° |
| 2026-04-15 06:10 | 43.71522 | -123.12851 | 13740 ft | 299 kts | 340° |
| 2026-04-15 06:11 | 43.73531 | -123.13480 | 13481 ft | 294 kts | 340° |
| 2026-04-15 06:11 | 43.75526 | -123.14110 | 13215 ft | 295 kts | 340° |
| 2026-04-15 06:11 | 43.77526 | -123.14749 | 12961 ft | 295 kts | 340° |
| 2026-04-15 06:11 | 43.79505 | -123.15366 | 12681 ft | 295 kts | 340° |
| 2026-04-15 06:12 | 43.81498 | -123.15994 | 12462 ft | 292 kts | 340° |
| 2026-04-15 06:12 | 43.83463 | -123.16612 | 12579 ft | 292 kts | 340° |
| 2026-04-15 06:12 | 43.85504 | -123.17158 | 12147 ft | 307 kts | 350° |
| 2026-04-15 06:12 | 43.87647 | -123.16777 | 11717 ft | 315 kts | 8° |
| 2026-04-15 06:13 | 43.89772 | -123.15851 | 11231 ft | 316 kts | 13° |
| 2026-04-15 06:13 | 43.91809 | -123.14877 | 10855 ft | 311 kts | 12° |
| 2026-04-15 06:13 | 43.93859 | -123.14006 | 10418 ft | 306 kts | 8° |
| 2026-04-15 06:13 | 43.95908 | -123.13268 | 10038 ft | 302 kts | 7° |
| 2026-04-15 06:14 | 43.97942 | -123.12576 | 9599 ft | 300 kts | 7° |
| 2026-04-15 06:14 | 43.99951 | -123.11877 | 9251 ft | 296 kts | 7° |
| 2026-04-15 06:14 | 44.01944 | -123.11151 | 8821 ft | 296 kts | 8° |
| 2026-04-15 06:14 | 44.03914 | -123.10412 | 8442 ft | 293 kts | 9° |
| 2026-04-15 06:15 | 44.05906 | -123.09664 | 7879 ft | 299 kts | 9° |
| 2026-04-15 06:15 | 44.07922 | -123.09047 | 7398 ft | 296 kts | 0° |
| 2026-04-15 06:15 | 44.09981 | -123.08964 | 6725 ft | 299 kts | 349° |
| 2026-04-15 06:15 | 44.12055 | -123.09203 | 5888 ft | 298 kts | 348° |
| 2026-04-15 06:16 | 44.14103 | -123.09413 | 5201 ft | 292 kts | 350° |
| 2026-04-15 06:16 | 44.16124 | -123.09458 | 4516 ft | 289 kts | 355° |
| 2026-04-15 06:16 | 44.18097 | -123.09361 | 4046 ft | 277 kts | 356° |
| 2026-04-15 06:16 | 44.19939 | -123.09644 | 3565 ft | 257 kts | 334° |
| 2026-04-15 06:17 | 44.21363 | -123.10879 | 3201 ft | 229 kts | 303° |
| 2026-04-15 06:17 | 44.22135 | -123.12697 | 2982 ft | 213 kts | 279° |
| 2026-04-15 06:17 | 44.22367 | -123.14705 | 2720 ft | 209 kts | 262° |
| 2026-04-15 06:17 | 44.22101 | -123.16653 | 2400 ft | 199 kts | 244° |
| 2026-04-15 06:18 | 44.21428 | -123.18270 | 2161 ft | 190 kts | 225° |
| 2026-04-15 06:18 | 44.20424 | -123.19440 | 1907 ft | 190 kts | 208° |
| 2026-04-15 06:18 | 44.19210 | -123.20079 | 1660 ft | 189 kts | 191° |
| 2026-04-15 06:18 | 44.17905 | -123.20220 | 1374 ft | 183 kts | 182° |
| 2026-04-15 06:19 | 44.16669 | -123.20298 | 1079 ft | 171 kts | 181° |
| 2026-04-15 06:19 | 44.15580 | -123.20326 | 963 ft | 143 kts | 180° |
| 2026-04-15 06:19 | 44.14666 | -123.20302 | 789 ft | 125 kts | 179° |
| 2026-04-15 06:19 | 44.13826 | -123.20290 | 514 ft | 114 kts | 177° |
| 2026-04-15 06:20 | 44.13072 | -123.20271 | 367 ft | 100 kts | 178° |
| 2026-04-15 06:20 | 44.12512 | -123.20262 | 357 ft | 60 kts | 180° |
| 2026-04-15 06:20 | 44.12217 | -123.20258 | 364 ft | 10 kts | 179° |
| 2026-04-15 06:20 | 44.12183 | -123.20269 | 360 ft | 3 kts | 235° |
| 2026-04-15 06:21 | 44.12178 | -123.20287 | 360 ft | 2 kts | 255° |
| 2026-04-15 06:21 | 44.12175 | -123.20305 | 360 ft | 2 kts | 259° |
| 2026-04-15 06:21 | 44.12173 | -123.20330 | 360 ft | 3 kts | 264° |
| 2026-04-15 06:21 | 44.12171 | -123.20370 | 367 ft | 5 kts | 270° |
| 2026-04-15 06:22 | 44.12174 | -123.20401 | 365 ft | 0 kts | 313° |
| 2026-04-15 06:22 | 44.12193 | -123.20408 | 367 ft | 8 kts | 353° |
| 2026-04-15 06:22 | 44.12294 | -123.20411 | 363 ft | 20 kts | 359° |
| 2026-04-15 06:22 | 44.12430 | -123.20413 | 359 ft | 18 kts | 359° |
| 2026-04-15 06:23 | 44.12554 | -123.20415 | 360 ft | 18 kts | 359° |
| 2026-04-15 06:23 | 44.12593 | -123.20416 | 361 ft | 0 kts | 355° |
| 2026-04-15 06:23 | 44.12596 | -123.20418 | 357 ft | 2 kts | 335° |
| 2026-04-15 06:23 | 44.12600 | -123.20443 | 361 ft | 5 kts | 269° |
| 2026-04-15 06:24 | 44.12600 | -123.20501 | 360 ft | 7 kts | 269° |
| 2026-04-15 06:24 | 44.12599 | -123.20572 | 363 ft | 8 kts | 269° |
| 2026-04-15 06:24 | 44.12598 | -123.20662 | 366 ft | 11 kts | 269° |
| 2026-04-15 06:24 | 44.12596 | -123.20764 | 368 ft | 9 kts | 269° |
| 2026-04-15 06:25 | 44.12596 | -123.20843 | 368 ft | 7 kts | 269° |
| 2026-04-15 06:25 | 44.12595 | -123.20915 | 368 ft | 8 kts | 269° |
| 2026-04-15 06:25 | 44.12594 | -123.21001 | 368 ft | 10 kts | 269° |
| 2026-04-15 06:25 | 44.12593 | -123.21109 | 368 ft | 12 kts | 269° |
| 2026-04-15 06:26 | 44.12550 | -123.21212 | 369 ft | 14 kts | 226° |
| 2026-04-15 06:26 | 44.12470 | -123.21329 | 368 ft | 19 kts | 225° |
| 2026-04-15 06:26 | 44.12406 | -123.21422 | 366 ft | 20 kts | 225° |
| 2026-04-15 06:26 | 44.12310 | -123.21562 | 363 ft | 16 kts | 215° |
| 2026-04-15 06:27 | 44.12236 | -123.21525 | 362 ft | 12 kts | 148° |
| 2026-04-15 06:27 | 44.12163 | -123.21459 | 366 ft | 13 kts | 145° |
| 2026-04-15 06:27 | 44.12126 | -123.21447 | 363 ft | 3 kts | 238° |
| 2026-04-15 06:27 | 44.12106 | -123.21498 | 362 ft | 9 kts | 224° |
| 2026-04-15 06:28 | 44.12033 | -123.21545 | 361 ft | 15 kts | 193° |
| 2026-04-15 06:28 | 44.11934 | -123.21529 | 363 ft | 14 kts | 156° |
| 2026-04-15 06:28 | 44.11877 | -123.21443 | 366 ft | 7 kts | 109° |
| 2026-04-15 06:28 | 44.11884 | -123.21422 | 365 ft | 3 kts | 54° |
| 2026-04-15 06:29 | 44.11899 | -123.21396 | 363 ft | 3 kts | 64° |
| 2026-04-15 06:29 | 44.11896 | -123.21365 | 363 ft | 4 kts | 107° |
| 2026-04-15 06:29 | 44.11895 | -123.21358 | 363 ft | 0 kts | 97° |